sensor_id;sensor_type;location;lat;lon;timestamp;temperature;humidity
74081;SHT31;62438;52.228;6.864;2023-04-24T00:00:31;10.05;88.82
74081;SHT31;62438;52.228;6.864;2023-04-24T00:02:32;10.04;89.25
74081;SHT31;62438;52.228;6.864;2023-04-24T00:04:32;10.05;88.85
74081;SHT31;62438;52.228;6.864;2023-04-24T00:06:33;10.04;88.88
74081;SHT31;62438;52.228;6.864;2023-04-24T00:08:34;10.02;89.04
74081;SHT31;62438;52.228;6.864;2023-04-24T00:10:35;10.02;89.30
74081;SHT31;62438;52.228;6.864;2023-04-24T00:12:36;10.07;88.99
74081;SHT31;62438;52.228;6.864;2023-04-24T00:14:37;10.10;88.59
74081;SHT31;62438;52.228;6.864;2023-04-24T00:16:38;10.10;88.85
74081;SHT31;62438;52.228;6.864;2023-04-24T00:18:38;10.11;89.08
74081;SHT31;62438;52.228;6.864;2023-04-24T00:20:38;10.10;89.70
74081;SHT31;62438;52.228;6.864;2023-04-24T00:22:40;10.10;89.83
74081;SHT31;62438;52.228;6.864;2023-04-24T00:24:40;10.11;89.53
74081;SHT31;62438;52.228;6.864;2023-04-24T00:26:41;10.14;89.71
74081;SHT31;62438;52.228;6.864;2023-04-24T00:28:41;10.12;89.74
74081;SHT31;62438;52.228;6.864;2023-04-24T00:30:41;10.17;89.67
74081;SHT31;62438;52.228;6.864;2023-04-24T00:32:42;10.17;90.26
74081;SHT31;62438;52.228;6.864;2023-04-24T00:34:43;10.17;90.22
74081;SHT31;62438;52.228;6.864;2023-04-24T00:36:43;10.17;90.50
74081;SHT31;62438;52.228;6.864;2023-04-24T00:38:44;10.17;90.28
74081;SHT31;62438;52.228;6.864;2023-04-24T00:40:45;10.17;90.27
74081;SHT31;62438;52.228;6.864;2023-04-24T00:42:45;10.12;90.30
74081;SHT31;62438;52.228;6.864;2023-04-24T00:44:46;10.14;90.06
74081;SHT31;62438;52.228;6.864;2023-04-24T00:46:47;10.12;90.20
74081;SHT31;62438;52.228;6.864;2023-04-24T00:48:52;10.12;90.23
74081;SHT31;62438;52.228;6.864;2023-04-24T00:50:52;10.14;89.84
74081;SHT31;62438;52.228;6.864;2023-04-24T00:52:53;10.12;89.90
74081;SHT31;62438;52.228;6.864;2023-04-24T00:54:54;10.14;89.92
74081;SHT31;62438;52.228;6.864;2023-04-24T00:56:55;10.12;89.92
74081;SHT31;62438;52.228;6.864;2023-04-24T00:58:57;10.12;90.58
74081;SHT31;62438;52.228;6.864;2023-04-24T01:00:58;10.17;89.92
74081;SHT31;62438;52.228;6.864;2023-04-24T01:03:00;10.12;90.65
74081;SHT31;62438;52.228;6.864;2023-04-24T01:05:02;10.12;90.44
74081;SHT31;62438;52.228;6.864;2023-04-24T01:07:04;10.14;89.82
74081;SHT31;62438;52.228;6.864;2023-04-24T01:09:10;10.08;90.41
74081;SHT31;62438;52.228;6.864;2023-04-24T01:11:11;10.08;89.92
74081;SHT31;62438;52.228;6.864;2023-04-24T01:13:11;10.07;90.27
74081;SHT31;62438;52.228;6.864;2023-04-24T01:15:12;10.07;90.48
74081;SHT31;62438;52.228;6.864;2023-04-24T01:17:13;10.07;90.58
74081;SHT31;62438;52.228;6.864;2023-04-24T01:19:14;10.04;90.46
74081;SHT31;62438;52.228;6.864;2023-04-24T01:21:15;10.10;90.14
74081;SHT31;62438;52.228;6.864;2023-04-24T01:23:19;10.08;90.33
74081;SHT31;62438;52.228;6.864;2023-04-24T01:25:19;10.07;90.38
74081;SHT31;62438;52.228;6.864;2023-04-24T01:27:20;10.08;90.22
74081;SHT31;62438;52.228;6.864;2023-04-24T01:29:21;10.08;90.80
74081;SHT31;62438;52.228;6.864;2023-04-24T01:31:21;10.02;90.65
74081;SHT31;62438;52.228;6.864;2023-04-24T01:33:22;10.04;90.71
74081;SHT31;62438;52.228;6.864;2023-04-24T01:35:23;10.01;91.22
74081;SHT31;62438;52.228;6.864;2023-04-24T01:37:23;9.97;93.71
74081;SHT31;62438;52.228;6.864;2023-04-24T01:39:24;9.94;92.19
74081;SHT31;62438;52.228;6.864;2023-04-24T01:41:25;9.93;91.96
74081;SHT31;62438;52.228;6.864;2023-04-24T01:43:26;9.87;92.19
74081;SHT31;62438;52.228;6.864;2023-04-24T01:45:26;9.91;92.11
74081;SHT31;62438;52.228;6.864;2023-04-24T01:47:27;9.90;92.04
74081;SHT31;62438;52.228;6.864;2023-04-24T01:49:28;9.87;92.23
74081;SHT31;62438;52.228;6.864;2023-04-24T01:51:29;9.90;92.18
74081;SHT31;62438;52.228;6.864;2023-04-24T01:53:30;9.89;92.10
74081;SHT31;62438;52.228;6.864;2023-04-24T01:55:30;9.90;92.23
74081;SHT31;62438;52.228;6.864;2023-04-24T01:57:32;9.97;91.82
74081;SHT31;62438;52.228;6.864;2023-04-24T01:59:33;9.95;91.75
74081;SHT31;62438;52.228;6.864;2023-04-24T02:01:35;9.95;91.61
74081;SHT31;62438;52.228;6.864;2023-04-24T02:03:36;9.98;91.52
74081;SHT31;62438;52.228;6.864;2023-04-24T02:05:36;10.01;91.63
74081;SHT31;62438;52.228;6.864;2023-04-24T02:07:37;10.01;91.88
74081;SHT31;62438;52.228;6.864;2023-04-24T02:09:37;10.01;91.66
74081;SHT31;62438;52.228;6.864;2023-04-24T02:11:37;10.00;91.92
74081;SHT31;62438;52.228;6.864;2023-04-24T02:13:38;9.97;91.78
74081;SHT31;62438;52.228;6.864;2023-04-24T02:15:38;9.95;92.35
74081;SHT31;62438;52.228;6.864;2023-04-24T02:17:39;9.89;92.97
74081;SHT31;62438;52.228;6.864;2023-04-24T02:19:40;9.87;93.12
74081;SHT31;62438;52.228;6.864;2023-04-24T02:21:40;9.87;92.78
74081;SHT31;62438;52.228;6.864;2023-04-24T02:23:41;9.87;93.34
74081;SHT31;62438;52.228;6.864;2023-04-24T02:25:41;9.84;93.41
74081;SHT31;62438;52.228;6.864;2023-04-24T02:27:41;9.89;93.37
74081;SHT31;62438;52.228;6.864;2023-04-24T02:29:42;9.86;93.42
74081;SHT31;62438;52.228;6.864;2023-04-24T02:31:42;9.87;93.29
74081;SHT31;62438;52.228;6.864;2023-04-24T02:33:42;9.86;93.62
74081;SHT31;62438;52.228;6.864;2023-04-24T02:35:43;9.84;93.71
74081;SHT31;62438;52.228;6.864;2023-04-24T02:37:43;9.80;93.33
74081;SHT31;62438;52.228;6.864;2023-04-24T02:39:44;9.79;93.69
74081;SHT31;62438;52.228;6.864;2023-04-24T02:41:44;9.76;94.24
74081;SHT31;62438;52.228;6.864;2023-04-24T02:43:45;9.73;94.18
74081;SHT31;62438;52.228;6.864;2023-04-24T02:45:45;9.72;94.36
74081;SHT31;62438;52.228;6.864;2023-04-24T02:47:46;9.64;94.56
74081;SHT31;62438;52.228;6.864;2023-04-24T02:49:46;9.60;94.92
74081;SHT31;62438;52.228;6.864;2023-04-24T02:51:47;9.60;94.59
74081;SHT31;62438;52.228;6.864;2023-04-24T02:53:47;9.60;94.70
74081;SHT31;62438;52.228;6.864;2023-04-24T02:55:47;9.60;94.79
74081;SHT31;62438;52.228;6.864;2023-04-24T02:57:48;9.60;94.39
74081;SHT31;62438;52.228;6.864;2023-04-24T02:59:48;9.60;94.06
74081;SHT31;62438;52.228;6.864;2023-04-24T03:01:48;9.56;94.40
74081;SHT31;62438;52.228;6.864;2023-04-24T03:03:49;9.53;94.46
74081;SHT31;62438;52.228;6.864;2023-04-24T03:05:49;9.52;94.65
74081;SHT31;62438;52.228;6.864;2023-04-24T03:07:50;9.50;94.47
74081;SHT31;62438;52.228;6.864;2023-04-24T03:09:52;9.52;94.87
74081;SHT31;62438;52.228;6.864;2023-04-24T03:11:53;9.47;94.66
74081;SHT31;62438;52.228;6.864;2023-04-24T03:13:53;9.42;95.30
74081;SHT31;62438;52.228;6.864;2023-04-24T03:15:53;9.39;95.10
74081;SHT31;62438;52.228;6.864;2023-04-24T03:17:54;9.33;95.91
74081;SHT31;62438;52.228;6.864;2023-04-24T03:19:55;9.35;96.03
74081;SHT31;62438;52.228;6.864;2023-04-24T03:21:55;9.32;96.36
74081;SHT31;62438;52.228;6.864;2023-04-24T03:23:56;9.28;96.28
74081;SHT31;62438;52.228;6.864;2023-04-24T03:25:56;9.28;96.24
74081;SHT31;62438;52.228;6.864;2023-04-24T03:27:56;9.23;95.99
74081;SHT31;62438;52.228;6.864;2023-04-24T03:29:57;9.29;95.54
74081;SHT31;62438;52.228;6.864;2023-04-24T03:31:57;9.26;95.45
74081;SHT31;62438;52.228;6.864;2023-04-24T03:33:58;9.25;95.43
74081;SHT31;62438;52.228;6.864;2023-04-24T03:35:58;9.25;95.49
74081;SHT31;62438;52.228;6.864;2023-04-24T03:37:58;9.25;95.38
74081;SHT31;62438;52.228;6.864;2023-04-24T03:39:59;9.28;95.16
74081;SHT31;62438;52.228;6.864;2023-04-24T03:42:00;9.28;95.24
74081;SHT31;62438;52.228;6.864;2023-04-24T03:44:00;9.28;95.43
74081;SHT31;62438;52.228;6.864;2023-04-24T03:46:01;9.25;95.80
74081;SHT31;62438;52.228;6.864;2023-04-24T03:48:01;9.22;95.82
74081;SHT31;62438;52.228;6.864;2023-04-24T03:50:02;9.22;95.40
74081;SHT31;62438;52.228;6.864;2023-04-24T03:52:02;9.26;95.44
74081;SHT31;62438;52.228;6.864;2023-04-24T03:54:03;9.26;95.42
74081;SHT31;62438;52.228;6.864;2023-04-24T03:56:03;9.23;95.97
74081;SHT31;62438;52.228;6.864;2023-04-24T03:58:04;9.25;95.93
74081;SHT31;62438;52.228;6.864;2023-04-24T04:00:05;9.26;95.34
74081;SHT31;62438;52.228;6.864;2023-04-24T04:02:06;9.25;95.39
74081;SHT31;62438;52.228;6.864;2023-04-24T04:04:07;9.29;95.35
74081;SHT31;62438;52.228;6.864;2023-04-24T04:06:08;9.31;95.13
74081;SHT31;62438;52.228;6.864;2023-04-24T04:08:11;9.31;95.08
74081;SHT31;62438;52.228;6.864;2023-04-24T04:10:11;9.32;94.99
74081;SHT31;62438;52.228;6.864;2023-04-24T04:12:12;9.35;95.25
74081;SHT31;62438;52.228;6.864;2023-04-24T04:14:12;9.31;95.09
74081;SHT31;62438;52.228;6.864;2023-04-24T04:16:13;9.33;94.66
74081;SHT31;62438;52.228;6.864;2023-04-24T04:18:14;9.33;94.94
74081;SHT31;62438;52.228;6.864;2023-04-24T04:20:15;9.29;95.06
74081;SHT31;62438;52.228;6.864;2023-04-24T04:22:15;9.31;95.10
74081;SHT31;62438;52.228;6.864;2023-04-24T04:24:16;9.28;95.53
74081;SHT31;62438;52.228;6.864;2023-04-24T04:26:16;9.33;95.04
74081;SHT31;62438;52.228;6.864;2023-04-24T04:28:19;9.28;95.49
74081;SHT31;62438;52.228;6.864;2023-04-24T04:30:20;9.25;95.53
74081;SHT31;62438;52.228;6.864;2023-04-24T04:32:21;9.28;95.49
74081;SHT31;62438;52.228;6.864;2023-04-24T04:34:21;9.26;95.40
74081;SHT31;62438;52.228;6.864;2023-04-24T04:36:23;9.26;95.28
74081;SHT31;62438;52.228;6.864;2023-04-24T04:38:24;9.21;95.52
74081;SHT31;62438;52.228;6.864;2023-04-24T04:40:26;9.25;95.22
74081;SHT31;62438;52.228;6.864;2023-04-24T04:42:28;9.23;95.44
74081;SHT31;62438;52.228;6.864;2023-04-24T04:44:29;9.16;95.51
74081;SHT31;62438;52.228;6.864;2023-04-24T04:46:31;9.18;96.19
74081;SHT31;62438;52.228;6.864;2023-04-24T04:48:33;9.14;96.19
74081;SHT31;62438;52.228;6.864;2023-04-24T04:50:34;9.12;96.40
74081;SHT31;62438;52.228;6.864;2023-04-24T04:52:34;9.14;96.20
74081;SHT31;62438;52.228;6.864;2023-04-24T04:54:35;9.15;95.82
74081;SHT31;62438;52.228;6.864;2023-04-24T04:56:35;9.21;95.65
74081;SHT31;62438;52.228;6.864;2023-04-24T04:58:36;9.23;95.50
74081;SHT31;62438;52.228;6.864;2023-04-24T05:00:36;9.22;94.93
74081;SHT31;62438;52.228;6.864;2023-04-24T05:02:38;9.31;94.67
74081;SHT31;62438;52.228;6.864;2023-04-24T05:04:39;9.32;94.19
74081;SHT31;62438;52.228;6.864;2023-04-24T05:06:39;9.35;94.39
74081;SHT31;62438;52.228;6.864;2023-04-24T05:08:40;9.36;94.09
74081;SHT31;62438;52.228;6.864;2023-04-24T05:10:40;9.38;93.85
74081;SHT31;62438;52.228;6.864;2023-04-24T05:12:41;9.35;94.06
74081;SHT31;62438;52.228;6.864;2023-04-24T05:14:41;9.35;94.13
74081;SHT31;62438;52.228;6.864;2023-04-24T05:16:42;9.36;93.81
74081;SHT31;62438;52.228;6.864;2023-04-24T05:18:42;9.35;94.01
74081;SHT31;62438;52.228;6.864;2023-04-24T05:20:43;9.33;94.29
74081;SHT31;62438;52.228;6.864;2023-04-24T05:22:46;9.38;94.63
74081;SHT31;62438;52.228;6.864;2023-04-24T05:24:47;9.39;94.16
74081;SHT31;62438;52.228;6.864;2023-04-24T05:26:48;9.33;94.57
74081;SHT31;62438;52.228;6.864;2023-04-24T05:28:48;9.32;94.79
74081;SHT31;62438;52.228;6.864;2023-04-24T05:30:50;9.31;95.28
74081;SHT31;62438;52.228;6.864;2023-04-24T05:32:50;9.32;95.51
74081;SHT31;62438;52.228;6.864;2023-04-24T05:34:50;9.29;95.16
74081;SHT31;62438;52.228;6.864;2023-04-24T05:36:51;9.28;95.00
74081;SHT31;62438;52.228;6.864;2023-04-24T05:38:52;9.29;95.58
74081;SHT31;62438;52.228;6.864;2023-04-24T05:40:52;9.29;95.83
74081;SHT31;62438;52.228;6.864;2023-04-24T05:42:53;9.31;95.19
74081;SHT31;62438;52.228;6.864;2023-04-24T05:44:53;9.32;95.65
74081;SHT31;62438;52.228;6.864;2023-04-24T05:46:54;9.32;95.64
74081;SHT31;62438;52.228;6.864;2023-04-24T05:48:56;9.28;95.50
74081;SHT31;62438;52.228;6.864;2023-04-24T05:50:56;9.25;95.70
74081;SHT31;62438;52.228;6.864;2023-04-24T05:52:56;9.25;95.54
74081;SHT31;62438;52.228;6.864;2023-04-24T05:55:02;9.25;95.58
74081;SHT31;62438;52.228;6.864;2023-04-24T05:57:02;9.22;95.53
74081;SHT31;62438;52.228;6.864;2023-04-24T05:59:07;9.23;96.21
74081;SHT31;62438;52.228;6.864;2023-04-24T06:01:08;9.26;96.43
74081;SHT31;62438;52.228;6.864;2023-04-24T06:03:09;9.22;96.31
74081;SHT31;62438;52.228;6.864;2023-04-24T06:05:10;9.21;95.62
74081;SHT31;62438;52.228;6.864;2023-04-24T06:07:11;9.23;96.23
74081;SHT31;62438;52.228;6.864;2023-04-24T06:09:11;9.19;95.94
74081;SHT31;62438;52.228;6.864;2023-04-24T06:11:12;9.21;96.36
74081;SHT31;62438;52.228;6.864;2023-04-24T06:13:12;9.25;96.11
74081;SHT31;62438;52.228;6.864;2023-04-24T06:15:13;9.28;95.97
74081;SHT31;62438;52.228;6.864;2023-04-24T06:17:15;9.32;95.86
74081;SHT31;62438;52.228;6.864;2023-04-24T06:19:16;9.35;95.94
74081;SHT31;62438;52.228;6.864;2023-04-24T06:21:16;9.36;95.26
74081;SHT31;62438;52.228;6.864;2023-04-24T06:23:17;9.33;95.42
74081;SHT31;62438;52.228;6.864;2023-04-24T06:25:18;9.42;96.00
74081;SHT31;62438;52.228;6.864;2023-04-24T06:27:19;9.46;95.52
74081;SHT31;62438;52.228;6.864;2023-04-24T06:29:19;9.46;95.43
74081;SHT31;62438;52.228;6.864;2023-04-24T06:31:20;9.49;95.95
74081;SHT31;62438;52.228;6.864;2023-04-24T06:33:20;9.46;95.38
74081;SHT31;62438;52.228;6.864;2023-04-24T06:35:21;9.43;95.67
74081;SHT31;62438;52.228;6.864;2023-04-24T06:37:21;9.39;95.98
74081;SHT31;62438;52.228;6.864;2023-04-24T06:39:22;9.32;96.36
74081;SHT31;62438;52.228;6.864;2023-04-24T06:41:22;9.26;96.43
74081;SHT31;62438;52.228;6.864;2023-04-24T06:43:23;9.28;96.58
74081;SHT31;62438;52.228;6.864;2023-04-24T06:45:23;9.23;96.58
74081;SHT31;62438;52.228;6.864;2023-04-24T06:47:24;9.25;96.73
74081;SHT31;62438;52.228;6.864;2023-04-24T06:49:24;9.25;96.72
74081;SHT31;62438;52.228;6.864;2023-04-24T06:51:25;9.23;96.86
74081;SHT31;62438;52.228;6.864;2023-04-24T06:53:26;9.22;97.12
74081;SHT31;62438;52.228;6.864;2023-04-24T06:55:27;9.18;96.77
74081;SHT31;62438;52.228;6.864;2023-04-24T06:57:28;9.18;96.50
74081;SHT31;62438;52.228;6.864;2023-04-24T06:59:29;9.14;96.82
74081;SHT31;62438;52.228;6.864;2023-04-24T07:01:30;9.08;96.56
74081;SHT31;62438;52.228;6.864;2023-04-24T07:03:31;9.02;96.67
74081;SHT31;62438;52.228;6.864;2023-04-24T07:05:31;8.98;96.25
74081;SHT31;62438;52.228;6.864;2023-04-24T07:07:34;8.95;97.34
74081;SHT31;62438;52.228;6.864;2023-04-24T07:09:34;8.89;97.16
74081;SHT31;62438;52.228;6.864;2023-04-24T07:11:38;8.92;97.42
74081;SHT31;62438;52.228;6.864;2023-04-24T07:13:40;8.91;97.52
74081;SHT31;62438;52.228;6.864;2023-04-24T07:15:42;8.87;97.03
74081;SHT31;62438;52.228;6.864;2023-04-24T07:17:42;8.83;97.45
74081;SHT31;62438;52.228;6.864;2023-04-24T07:19:45;8.80;97.64
74081;SHT31;62438;52.228;6.864;2023-04-24T07:21:46;8.77;97.84
74081;SHT31;62438;52.228;6.864;2023-04-24T07:23:46;8.71;98.60
74081;SHT31;62438;52.228;6.864;2023-04-24T07:25:47;8.71;98.43
74081;SHT31;62438;52.228;6.864;2023-04-24T07:27:47;8.71;99.52
74081;SHT31;62438;52.228;6.864;2023-04-24T07:29:49;8.75;99.25
74081;SHT31;62438;52.228;6.864;2023-04-24T07:31:49;8.70;99.20
74081;SHT31;62438;52.228;6.864;2023-04-24T07:33:50;8.60;98.79
74081;SHT31;62438;52.228;6.864;2023-04-24T07:35:50;8.60;99.34
74081;SHT31;62438;52.228;6.864;2023-04-24T07:37:52;8.63;99.85
74081;SHT31;62438;52.228;6.864;2023-04-24T07:39:53;8.61;99.09
74081;SHT31;62438;52.228;6.864;2023-04-24T07:41:54;8.68;99.64
74081;SHT31;62438;52.228;6.864;2023-04-24T07:43:54;8.63;99.09
74081;SHT31;62438;52.228;6.864;2023-04-24T07:45:55;8.68;99.43
74081;SHT31;62438;52.228;6.864;2023-04-24T07:47:56;8.65;99.42
74081;SHT31;62438;52.228;6.864;2023-04-24T07:49:56;8.68;99.22
74081;SHT31;62438;52.228;6.864;2023-04-24T07:51:57;8.70;99.30
74081;SHT31;62438;52.228;6.864;2023-04-24T07:53:57;8.68;98.88
74081;SHT31;62438;52.228;6.864;2023-04-24T07:55:58;8.71;99.12
74081;SHT31;62438;52.228;6.864;2023-04-24T07:57:58;8.73;99.35
74081;SHT31;62438;52.228;6.864;2023-04-24T07:59:59;8.73;98.98
74081;SHT31;62438;52.228;6.864;2023-04-24T08:01:59;8.74;99.56
74081;SHT31;62438;52.228;6.864;2023-04-24T08:04:01;8.73;99.53
74081;SHT31;62438;52.228;6.864;2023-04-24T08:06:02;8.74;99.48
74081;SHT31;62438;52.228;6.864;2023-04-24T08:08:02;8.59;99.55
74081;SHT31;62438;52.228;6.864;2023-04-24T08:10:03;8.61;99.62
74081;SHT31;62438;52.228;6.864;2023-04-24T08:12:03;8.61;99.14
74081;SHT31;62438;52.228;6.864;2023-04-24T08:14:04;8.67;99.63
74081;SHT31;62438;52.228;6.864;2023-04-24T08:16:05;8.65;99.29
74081;SHT31;62438;52.228;6.864;2023-04-24T08:18:05;8.67;99.75
74081;SHT31;62438;52.228;6.864;2023-04-24T08:20:06;8.64;99.53
74081;SHT31;62438;52.228;6.864;2023-04-24T08:22:10;8.64;99.53
74081;SHT31;62438;52.228;6.864;2023-04-24T08:24:10;8.65;99.77
74081;SHT31;62438;52.228;6.864;2023-04-24T08:26:12;8.67;99.94
74081;SHT31;62438;52.228;6.864;2023-04-24T08:28:12;8.70;99.99
74081;SHT31;62438;52.228;6.864;2023-04-24T08:30:13;8.71;99.99
74081;SHT31;62438;52.228;6.864;2023-04-24T08:32:13;8.84;99.99
74081;SHT31;62438;52.228;6.864;2023-04-24T08:34:14;8.78;99.80
74081;SHT31;62438;52.228;6.864;2023-04-24T08:36:15;8.83;99.92
74081;SHT31;62438;52.228;6.864;2023-04-24T08:38:16;8.83;99.81
74081;SHT31;62438;52.228;6.864;2023-04-24T08:40:16;8.88;99.82
74081;SHT31;62438;52.228;6.864;2023-04-24T08:42:18;8.92;99.99
74081;SHT31;62438;52.228;6.864;2023-04-24T08:44:19;8.98;99.72
74081;SHT31;62438;52.228;6.864;2023-04-24T08:46:20;8.94;99.92
74081;SHT31;62438;52.228;6.864;2023-04-24T08:48:22;9.00;99.99
74081;SHT31;62438;52.228;6.864;2023-04-24T08:50:23;8.94;99.84
74081;SHT31;62438;52.228;6.864;2023-04-24T08:52:25;9.02;99.99
74081;SHT31;62438;52.228;6.864;2023-04-24T08:54:26;9.02;99.87
74081;SHT31;62438;52.228;6.864;2023-04-24T08:56:28;9.10;99.99
74081;SHT31;62438;52.228;6.864;2023-04-24T08:58:29;9.10;99.81
74081;SHT31;62438;52.228;6.864;2023-04-24T09:00:31;9.14;99.99
74081;SHT31;62438;52.228;6.864;2023-04-24T09:02:31;9.10;99.99
74081;SHT31;62438;52.228;6.864;2023-04-24T09:04:34;9.07;99.99
74081;SHT31;62438;52.228;6.864;2023-04-24T09:06:36;9.04;99.99
74081;SHT31;62438;52.228;6.864;2023-04-24T09:08:36;9.05;99.99
74081;SHT31;62438;52.228;6.864;2023-04-24T09:10:36;9.05;99.99
74081;SHT31;62438;52.228;6.864;2023-04-24T09:12:37;9.07;99.98
74081;SHT31;62438;52.228;6.864;2023-04-24T09:14:37;9.10;99.99
74081;SHT31;62438;52.228;6.864;2023-04-24T09:16:42;9.14;99.99
74081;SHT31;62438;52.228;6.864;2023-04-24T09:18:43;9.12;99.99
74081;SHT31;62438;52.228;6.864;2023-04-24T09:21:04;9.10;99.64
74081;SHT31;62438;52.228;6.864;2023-04-24T09:23:06;9.10;99.88
74081;SHT31;62438;52.228;6.864;2023-04-24T09:25:08;9.14;99.99
74081;SHT31;62438;52.228;6.864;2023-04-24T09:27:10;9.14;99.99
74081;SHT31;62438;52.228;6.864;2023-04-24T09:29:16;9.16;99.99
74081;SHT31;62438;52.228;6.864;2023-04-24T09:31:18;9.16;99.89
74081;SHT31;62438;52.228;6.864;2023-04-24T09:33:21;9.07;99.89
74081;SHT31;62438;52.228;6.864;2023-04-24T09:35:22;9.01;99.99
74081;SHT31;62438;52.228;6.864;2023-04-24T09:37:29;8.81;99.99
74081;SHT31;62438;52.228;6.864;2023-04-24T09:39:29;8.81;99.99
74081;SHT31;62438;52.228;6.864;2023-04-24T09:41:32;8.71;99.69
74081;SHT31;62438;52.228;6.864;2023-04-24T09:43:33;8.63;99.32
74081;SHT31;62438;52.228;6.864;2023-04-24T09:45:37;8.60;99.62
74081;SHT31;62438;52.228;6.864;2023-04-24T09:47:39;8.49;99.19
74081;SHT31;62438;52.228;6.864;2023-04-24T09:49:40;8.47;99.30
74081;SHT31;62438;52.228;6.864;2023-04-24T09:51:43;8.43;99.15
74081;SHT31;62438;52.228;6.864;2023-04-24T09:53:46;8.40;98.94
74081;SHT31;62438;52.228;6.864;2023-04-24T09:55:47;8.44;99.03
74081;SHT31;62438;52.228;6.864;2023-04-24T09:57:59;8.40;99.99
74081;SHT31;62438;52.228;6.864;2023-04-24T10:00:05;8.50;99.93
74081;SHT31;62438;52.228;6.864;2023-04-24T10:02:19;8.50;99.76
74081;SHT31;62438;52.228;6.864;2023-04-24T10:04:22;8.46;99.66
74081;SHT31;62438;52.228;6.864;2023-04-24T10:06:31;8.46;99.99
74081;SHT31;62438;52.228;6.864;2023-04-24T10:08:35;8.47;99.43
74081;SHT31;62438;52.228;6.864;2023-04-24T10:10:44;8.47;99.42
74081;SHT31;62438;52.228;6.864;2023-04-24T10:12:45;8.53;99.66
74081;SHT31;62438;52.228;6.864;2023-04-24T10:14:46;8.64;99.52
74081;SHT31;62438;52.228;6.864;2023-04-24T10:16:47;8.70;99.99
74081;SHT31;62438;52.228;6.864;2023-04-24T10:18:48;8.71;99.57
74081;SHT31;62438;52.228;6.864;2023-04-24T10:20:49;8.73;99.37
74081;SHT31;62438;52.228;6.864;2023-04-24T10:22:51;8.78;99.47
74081;SHT31;62438;52.228;6.864;2023-04-24T10:24:52;8.80;98.92
74081;SHT31;62438;52.228;6.864;2023-04-24T10:26:53;8.74;98.53
74081;SHT31;62438;52.228;6.864;2023-04-24T10:28:57;8.68;98.53
74081;SHT31;62438;52.228;6.864;2023-04-24T10:30:58;8.65;98.68
74081;SHT31;62438;52.228;6.864;2023-04-24T10:32:59;8.73;99.62
74081;SHT31;62438;52.228;6.864;2023-04-24T10:34:59;8.67;99.24
74081;SHT31;62438;52.228;6.864;2023-04-24T10:37:00;8.57;98.64
74081;SHT31;62438;52.228;6.864;2023-04-24T10:39:03;8.60;99.61
74081;SHT31;62438;52.228;6.864;2023-04-24T10:41:10;8.57;99.99
74081;SHT31;62438;52.228;6.864;2023-04-24T10:43:17;8.54;99.92
74081;SHT31;62438;52.228;6.864;2023-04-24T10:45:20;8.59;99.99
74081;SHT31;62438;52.228;6.864;2023-04-24T10:47:22;8.77;99.99
74081;SHT31;62438;52.228;6.864;2023-04-24T10:49:29;8.73;98.42
74081;SHT31;62438;52.228;6.864;2023-04-24T10:51:49;8.64;99.00
74081;SHT31;62438;52.228;6.864;2023-04-24T10:53:50;8.63;99.12
74081;SHT31;62438;52.228;6.864;2023-04-24T10:58:03;8.63;99.35
74081;SHT31;62438;52.228;6.864;2023-04-24T11:00:28;8.57;98.87
74081;SHT31;62438;52.228;6.864;2023-04-24T11:02:39;8.53;98.72
74081;SHT31;62438;52.228;6.864;2023-04-24T11:04:40;8.50;97.70
74081;SHT31;62438;52.228;6.864;2023-04-24T11:06:41;8.53;98.36
74081;SHT31;62438;52.228;6.864;2023-04-24T11:08:47;8.61;97.90
74081;SHT31;62438;52.228;6.864;2023-04-24T11:12:58;8.67;97.79
74081;SHT31;62438;52.228;6.864;2023-04-24T11:15:01;8.68;96.98
74081;SHT31;62438;52.228;6.864;2023-04-24T11:17:02;8.73;97.39
74081;SHT31;62438;52.228;6.864;2023-04-24T11:19:26;8.77;97.68
74081;SHT31;62438;52.228;6.864;2023-04-24T11:21:40;8.78;96.15
74081;SHT31;62438;52.228;6.864;2023-04-24T11:23:42;8.81;97.28
74081;SHT31;62438;52.228;6.864;2023-04-24T11:25:42;8.73;96.31
74081;SHT31;62438;52.228;6.864;2023-04-24T11:27:44;8.59;96.37
74081;SHT31;62438;52.228;6.864;2023-04-24T11:31:55;8.52;97.09
74081;SHT31;62438;52.228;6.864;2023-04-24T11:34:06;8.59;97.67
74081;SHT31;62438;52.228;6.864;2023-04-24T11:36:07;8.57;97.22
74081;SHT31;62438;52.228;6.864;2023-04-24T11:38:07;8.56;96.63
74081;SHT31;62438;52.228;6.864;2023-04-24T11:40:11;8.57;97.72
74081;SHT31;62438;52.228;6.864;2023-04-24T11:42:15;8.60;97.57
74081;SHT31;62438;52.228;6.864;2023-04-24T11:44:19;8.67;97.53
74081;SHT31;62438;52.228;6.864;2023-04-24T11:46:21;8.65;97.26
74081;SHT31;62438;52.228;6.864;2023-04-24T11:48:21;8.68;96.55
74081;SHT31;62438;52.228;6.864;2023-04-24T11:50:24;8.84;96.15
74081;SHT31;62438;52.228;6.864;2023-04-24T11:52:27;8.87;94.13
74081;SHT31;62438;52.228;6.864;2023-04-24T11:54:28;8.94;93.77
74081;SHT31;62438;52.228;6.864;2023-04-24T11:56:29;8.83;90.45
74081;SHT31;62438;52.228;6.864;2023-04-24T11:58:37;8.70;90.30
74081;SHT31;62438;52.228;6.864;2023-04-24T12:00:38;8.71;89.08
74081;SHT31;62438;52.228;6.864;2023-04-24T12:02:39;8.70;88.88
74081;SHT31;62438;52.228;6.864;2023-04-24T12:04:40;8.88;90.20
74081;SHT31;62438;52.228;6.864;2023-04-24T12:06:59;9.23;90.61
74081;SHT31;62438;52.228;6.864;2023-04-24T12:09:00;9.40;88.78
74081;SHT31;62438;52.228;6.864;2023-04-24T12:11:02;9.46;88.85
74081;SHT31;62438;52.228;6.864;2023-04-24T12:13:02;9.39;88.78
74081;SHT31;62438;52.228;6.864;2023-04-24T12:15:07;9.42;88.58
74081;SHT31;62438;52.228;6.864;2023-04-24T12:17:08;9.49;88.59
74081;SHT31;62438;52.228;6.864;2023-04-24T12:19:08;9.39;88.00
74081;SHT31;62438;52.228;6.864;2023-04-24T12:21:20;9.26;89.48
74081;SHT31;62438;52.228;6.864;2023-04-24T12:23:34;9.22;87.82
74081;SHT31;62438;52.228;6.864;2023-04-24T12:25:35;9.14;89.52
74081;SHT31;62438;52.228;6.864;2023-04-24T12:27:36;9.05;89.83
74081;SHT31;62438;52.228;6.864;2023-04-24T12:29:36;8.94;88.08
74081;SHT31;62438;52.228;6.864;2023-04-24T12:31:37;8.95;88.07
74081;SHT31;62438;52.228;6.864;2023-04-24T12:33:37;8.95;87.94
74081;SHT31;62438;52.228;6.864;2023-04-24T12:35:40;9.00;88.38
74081;SHT31;62438;52.228;6.864;2023-04-24T12:37:42;9.05;88.58
74081;SHT31;62438;52.228;6.864;2023-04-24T12:40:09;9.15;88.49
74081;SHT31;62438;52.228;6.864;2023-04-24T12:42:11;9.08;89.09
74081;SHT31;62438;52.228;6.864;2023-04-24T12:44:12;9.05;88.74
74081;SHT31;62438;52.228;6.864;2023-04-24T12:46:13;9.10;90.10
74081;SHT31;62438;52.228;6.864;2023-04-24T12:48:13;9.11;88.82
74081;SHT31;62438;52.228;6.864;2023-04-24T12:50:17;9.29;89.40
74081;SHT31;62438;52.228;6.864;2023-04-24T12:52:18;9.53;89.81
74081;SHT31;62438;52.228;6.864;2023-04-24T12:54:20;9.64;88.38
74081;SHT31;62438;52.228;6.864;2023-04-24T12:56:20;9.81;88.63
74081;SHT31;62438;52.228;6.864;2023-04-24T12:58:21;9.69;86.85
74081;SHT31;62438;52.228;6.864;2023-04-24T13:00:22;9.70;88.42
74081;SHT31;62438;52.228;6.864;2023-04-24T13:02:23;9.57;87.62
74081;SHT31;62438;52.228;6.864;2023-04-24T13:04:24;9.44;87.24
74081;SHT31;62438;52.228;6.864;2023-04-24T13:06:25;9.38;86.75